createdAt,value
2023-01-11T00:00:16.689Z,68.40
2023-01-11T00:03:37.823Z,67.99
2023-01-11T00:06:58.296Z,68.62
2023-01-11T00:10:19.940Z,68.05
2023-01-11T00:13:43.086Z,68.70
2023-01-11T00:17:03.504Z,68.77
2023-01-11T00:20:23.841Z,69.08
2023-01-11T00:23:44.408Z,69.15
2023-01-11T00:27:04.740Z,68.85
2023-01-11T00:30:28.606Z,68.22
2023-01-11T00:33:49.358Z,68.66
2023-01-11T00:37:10.889Z,68.37
2023-01-11T00:40:31.216Z,68.31
2023-01-11T00:44:07.038Z,69.08
2023-01-11T00:47:45.869Z,68.21
2023-01-11T00:51:06.330Z,68.97
2023-01-11T00:54:27.211Z,70.00
2023-01-11T00:57:47.818Z,68.59
2023-01-11T01:01:10.601Z,69.06
2023-01-11T01:04:34.758Z,68.29
2023-01-11T01:07:55.194Z,67.92
2023-01-11T01:11:15.549Z,67.77
2023-01-11T01:14:34.749Z,68.98
2023-01-11T01:17:58.055Z,68.82
2023-01-11T01:21:21.160Z,67.79
2023-01-11T01:24:41.647Z,68.55
2023-01-11T01:28:02.164Z,68.11
2023-01-11T01:31:22.780Z,67.91
2023-01-11T01:34:43.245Z,68.52
2023-01-11T01:38:06.339Z,67.79
2023-01-11T01:41:26.754Z,68.44
2023-01-11T01:45:20.383Z,67.79
2023-01-11T01:48:46.029Z,68.61
2023-01-11T01:52:07.424Z,67.82
2023-01-11T01:55:39.036Z,68.65
2023-01-11T01:59:07.931Z,68.21
2023-01-11T02:02:29.920Z,69.03
2023-01-11T02:05:54.700Z,68.11
2023-01-11T02:09:29.834Z,67.80
2023-01-11T02:13:01.470Z,68.39
2023-01-11T02:16:24.600Z,69.13
2023-01-11T02:19:55.373Z,69.18
2023-01-11T02:23:50.158Z,69.35
2023-01-11T02:27:32.095Z,68.36
2023-01-11T02:30:56.988Z,68.00
2023-01-11T02:34:30.448Z,68.42
2023-01-11T02:37:51.135Z,68.49
2023-01-11T02:41:11.853Z,67.51
2023-01-11T02:44:43.772Z,67.85
2023-01-11T02:48:02.133Z,68.40
2023-01-11T02:51:15.962Z,67.97
2023-01-11T02:54:27.468Z,68.02
2023-01-11T02:57:39.398Z,67.99
2023-01-11T03:00:47.676Z,68.28
2023-01-11T03:03:57.842Z,69.06
2023-01-11T03:07:30.597Z,68.19
2023-01-11T03:11:00.045Z,68.52
2023-01-11T03:14:20.798Z,68.17
2023-01-11T03:17:48.868Z,67.13
2023-01-11T03:21:20.021Z,67.18
2023-01-11T03:24:41.791Z,67.66
2023-01-11T03:28:05.163Z,67.63
2023-01-11T03:31:24.205Z,68.24
2023-01-11T03:34:43.433Z,67.90
2023-01-11T03:38:03.560Z,67.80
2023-01-11T03:41:19.561Z,66.78
2023-01-11T03:44:29.339Z,66.60
2023-01-11T03:47:39.047Z,67.83
2023-01-11T03:50:46.916Z,67.13
2023-01-11T03:54:02.491Z,66.82
2023-01-11T03:57:16.532Z,67.08
2023-01-11T04:00:23.734Z,67.47
2023-01-11T04:03:29.393Z,67.71
2023-01-11T04:06:40.723Z,67.76
2023-01-11T04:09:49.514Z,67.19
2023-01-11T04:12:55.713Z,66.99
2023-01-11T04:16:01.079Z,67.10
2023-01-11T04:19:07.322Z,66.99
2023-01-11T04:22:12.716Z,67.27
2023-01-11T04:25:21.851Z,66.28
2023-01-11T04:28:27.234Z,67.30
2023-01-11T04:31:33.562Z,66.91
2023-01-11T04:34:38.933Z,65.99
2023-01-11T04:37:45.257Z,66.12
2023-01-11T04:41:14.864Z,66.35
2023-01-11T04:44:21.152Z,66.83
2023-01-11T04:47:28.297Z,66.71
2023-01-11T04:50:34.670Z,66.97
2023-01-11T04:53:40.521Z,66.72
2023-01-11T04:56:49.504Z,66.61
2023-01-11T04:59:54.893Z,66.63
2023-01-11T05:03:02.630Z,66.33
2023-01-11T05:06:08.943Z,66.23
2023-01-11T05:09:18.832Z,65.89
2023-01-11T05:12:27.334Z,66.22
2023-01-11T05:15:33.518Z,66.25
2023-01-11T05:18:39.384Z,66.02
2023-01-11T05:21:45.854Z,66.43
2023-01-11T05:24:51.259Z,66.20
2023-01-11T05:28:00.253Z,66.42
2023-01-11T05:31:06.569Z,67.35
2023-01-11T05:34:16.656Z,67.27
2023-01-11T05:37:21.979Z,67.28
2023-01-11T05:40:28.204Z,66.89
2023-01-11T05:43:59.445Z,66.50
2023-01-11T05:47:05.760Z,67.34
2023-01-11T05:50:13.406Z,67.14
2023-01-11T05:53:19.612Z,66.68
2023-01-11T05:56:25.027Z,66.88
2023-01-11T05:59:34.032Z,66.36
2023-01-11T06:02:39.638Z,67.12
2023-01-11T06:05:46.232Z,67.10
2023-01-11T06:08:52.375Z,66.68
2023-01-11T06:11:58.647Z,66.78
2023-01-11T06:15:07.835Z,66.30
2023-01-11T06:18:14.162Z,66.09
2023-01-11T06:21:21.359Z,65.86
2023-01-11T06:24:27.820Z,65.70
2023-01-11T06:27:33.191Z,66.58
2023-01-11T06:30:43.156Z,65.91
2023-01-11T06:33:49.687Z,66.57
2023-01-11T06:36:55.894Z,66.80
2023-01-11T06:40:01.293Z,66.88
2023-01-11T06:43:08.584Z,67.66
2023-01-11T06:46:19.786Z,66.48
2023-01-11T06:49:26.064Z,66.33
2023-01-11T06:52:31.609Z,66.44
2023-01-11T06:55:37.845Z,67.81
2023-01-11T06:58:45.577Z,66.83
2023-01-11T07:01:56.359Z,67.49
2023-01-11T07:05:01.816Z,67.10
2023-01-11T07:08:26.800Z,68.42
2023-01-11T07:11:50.822Z,67.73
2023-01-11T07:15:15.260Z,68.37
2023-01-11T07:18:41.912Z,67.97
2023-01-11T07:22:06.698Z,67.78
2023-01-11T07:25:32.017Z,67.17
2023-01-11T07:28:38.605Z,67.49
2023-01-11T07:31:44.176Z,67.47
2023-01-11T07:34:53.166Z,67.32
2023-01-11T07:37:58.607Z,66.91
2023-01-11T07:41:25.396Z,68.08
2023-01-11T07:44:30.653Z,67.38
2023-01-11T07:47:37.514Z,67.31
2023-01-11T07:50:46.591Z,67.94
2023-01-11T07:53:52.851Z,68.69
2023-01-11T07:56:58.291Z,68.35
2023-01-11T08:00:04.706Z,67.78
2023-01-11T08:03:17.607Z,68.19
2023-01-11T08:06:26.759Z,67.51
2023-01-11T08:09:32.179Z,68.05
2023-01-11T08:12:54.309Z,67.32
2023-01-11T08:16:01.321Z,67.14
2023-01-11T08:19:08.192Z,67.94
2023-01-11T08:22:17.892Z,67.34
2023-01-11T08:25:25.761Z,67.38
2023-01-11T08:28:32.300Z,67.99
2023-01-11T08:31:38.589Z,66.93
2023-01-11T08:34:44.224Z,66.82
2023-01-11T08:37:53.415Z,67.50
2023-01-11T08:40:58.789Z,67.41
2023-01-11T08:44:05.138Z,66.88
2023-01-11T08:47:10.555Z,67.56
2023-01-11T08:50:17.907Z,66.85
2023-01-11T08:53:26.688Z,66.13
2023-01-11T08:56:32.967Z,65.81
2023-01-11T08:59:38.382Z,65.64
2023-01-11T09:02:45.589Z,65.81
2023-01-11T09:05:51.596Z,65.64
2023-01-11T09:09:00.938Z,65.00
2023-01-11T09:12:06.670Z,66.18
2023-01-11T09:15:14.325Z,65.21
2023-01-11T09:18:19.695Z,65.74
2023-01-11T09:21:26.723Z,65.48
2023-01-11T09:24:35.195Z,64.83
2023-01-11T09:27:41.543Z,64.29
2023-01-11T09:30:51.411Z,64.94
2023-01-11T09:33:57.899Z,64.95
2023-01-11T09:37:04.781Z,64.35
2023-01-11T09:40:23.815Z,64.95
2023-01-11T09:43:33.509Z,64.01
2023-01-11T09:46:45.287Z,64.39
2023-01-11T09:49:59.282Z,64.22
2023-01-11T09:53:10.872Z,63.70
2023-01-11T09:56:25.816Z,64.00
2023-01-11T09:59:45.008Z,64.17
2023-01-11T10:04:03.627Z,64.01
2023-01-11T10:18:30.103Z,64.16
2023-01-11T10:22:48.496Z,63.79
2023-01-11T10:26:05.061Z,65.21
2023-01-11T10:29:40.444Z,64.57
2023-01-11T10:33:06.667Z,64.94
2023-01-11T10:36:39.882Z,64.29
2023-01-11T10:40:29.375Z,65.13
2023-01-11T10:43:44.698Z,64.96
2023-01-11T10:46:59.855Z,65.03
2023-01-11T10:50:25.808Z,64.11
2023-01-11T10:53:42.551Z,64.10
2023-01-11T10:57:23.157Z,64.14
2023-01-11T11:00:42.374Z,64.18
2023-01-11T11:04:28.156Z,62.97
2023-01-11T11:07:49.985Z,62.93
2023-01-11T11:11:08.767Z,62.67
2023-01-11T11:14:27.136Z,62.65
2023-01-11T11:17:38.643Z,62.87
2023-01-11T11:20:47.118Z,61.22
2023-01-11T11:24:06.019Z,61.11
2023-01-11T11:27:28.621Z,61.06
2023-01-11T11:30:41.649Z,60.16
2023-01-11T11:33:50.051Z,60.84
2023-01-11T11:37:03.897Z,60.39
2023-01-11T11:40:30.568Z,60.73
2023-01-11T11:43:38.786Z,60.49
2023-01-11T11:46:44.582Z,59.30
2023-01-11T11:50:01.271Z,59.05
2023-01-11T11:53:10.410Z,58.78
2023-01-11T11:56:27.817Z,58.45
2023-01-11T11:59:35.196Z,58.49
2023-01-11T12:02:55.194Z,58.33
2023-01-11T12:06:05.037Z,58.01
2023-01-11T12:09:34.931Z,57.60
2023-01-11T12:12:55.974Z,58.42
2023-01-11T12:16:06.176Z,58.50
2023-01-11T12:19:32.600Z,58.70
2023-01-11T12:22:38.923Z,58.26
2023-01-11T12:26:14.036Z,58.99
2023-01-11T12:29:42.645Z,60.01
2023-01-11T12:33:43.151Z,60.46
2023-01-11T12:37:03.905Z,60.41
2023-01-11T12:40:27.007Z,59.68
2023-01-11T12:44:07.191Z,59.42
2023-01-11T12:47:58.603Z,59.83
2023-01-11T12:51:26.877Z,60.05
2023-01-11T12:55:05.966Z,59.62
2023-01-11T12:58:27.916Z,59.64
2023-01-11T13:01:55.121Z,59.42
2023-01-11T13:05:19.188Z,58.84
2023-01-11T13:08:46.333Z,59.14
2023-01-11T13:12:07.343Z,59.17
2023-01-11T13:15:42.260Z,58.64
2023-01-11T13:19:03.363Z,57.83
2023-01-11T13:22:21.360Z,57.84
2023-01-11T13:25:34.383Z,57.41
2023-01-11T13:28:47.471Z,56.68
2023-01-11T13:31:56.301Z,56.91
2023-01-11T13:35:18.337Z,57.05
2023-01-11T13:38:41.553Z,56.85
2023-01-11T13:41:56.545Z,56.87
2023-01-11T13:45:19.525Z,55.79
2023-01-11T13:48:35.438Z,56.63
2023-01-11T13:52:00.742Z,56.74
2023-01-11T13:55:24.879Z,56.18
2023-01-11T13:58:40.491Z,56.62
2023-01-11T14:01:59.720Z,59.04
2023-01-11T14:05:18.520Z,59.00
2023-01-11T14:09:12.585Z,56.91
2023-01-11T14:12:42.143Z,56.06
2023-01-11T14:16:02.344Z,55.90
2023-01-11T14:19:25.376Z,56.45
2023-01-11T14:22:44.557Z,55.96
2023-01-11T14:26:37.028Z,56.57
2023-01-11T14:30:18.031Z,58.12
2023-01-11T14:34:14.339Z,59.73
2023-01-11T14:38:08.735Z,60.44
2023-01-11T14:42:12.089Z,61.46
2023-01-11T14:45:40.059Z,61.35
2023-01-11T14:49:00.490Z,61.88
2023-01-11T14:52:15.113Z,62.08
2023-01-11T14:55:29.202Z,63.20
2023-01-11T14:58:37.377Z,62.63
2023-01-11T15:02:28.511Z,63.64
2023-01-11T15:05:42.058Z,63.77
2023-01-11T15:08:53.587Z,63.25
2023-01-11T15:12:14.778Z,63.96
2023-01-11T15:15:47.357Z,64.17
2023-01-11T15:18:50.267Z,64.08
2023-01-11T15:21:59.719Z,63.88
2023-01-11T15:25:09.745Z,64.83
2023-01-11T15:28:41.707Z,64.32
2023-01-11T15:32:17.141Z,64.69
2023-01-11T15:35:36.994Z,65.15
2023-01-11T15:38:54.342Z,65.62
2023-01-11T15:42:37.552Z,65.88
2023-01-11T15:46:43.521Z,66.20
2023-01-11T15:50:57.862Z,65.79
2023-01-11T15:54:53.256Z,66.54
2023-01-11T15:58:36.713Z,65.36
2023-01-11T16:02:17.129Z,66.21
2023-01-11T16:05:30.142Z,65.11
2023-01-11T16:08:53.529Z,65.64
2023-01-11T16:12:30.514Z,65.26
2023-01-11T16:15:57.013Z,66.34
2023-01-11T16:19:17.856Z,65.75
2023-01-11T16:22:28.905Z,65.58
2023-01-11T16:25:46.603Z,66.04
2023-01-11T16:28:57.835Z,64.92
2023-01-11T16:32:07.932Z,64.87
2023-01-11T16:35:22.499Z,65.35
2023-01-11T16:38:30.984Z,65.14
2023-01-11T16:41:51.295Z,65.95
2023-01-11T16:45:04.813Z,65.52
2023-01-11T16:48:19.095Z,65.00
2023-01-11T16:51:25.319Z,64.67
2023-01-11T16:54:36.144Z,65.80
2023-01-11T16:57:54.403Z,65.43
2023-01-11T17:01:03.373Z,65.35
2023-01-11T17:04:28.862Z,65.15
2023-01-11T17:07:34.236Z,65.64
2023-01-11T17:10:40.843Z,64.42
2023-01-11T17:14:34.706Z,64.61
2023-01-11T17:17:42.299Z,64.90
2023-01-11T17:20:47.908Z,63.89
2023-01-11T17:24:05.730Z,63.98
2023-01-11T17:27:24.092Z,63.59
2023-01-11T17:30:35.524Z,62.67
2023-01-11T17:33:41.212Z,63.93
2023-01-11T17:36:49.536Z,63.39
2023-01-11T17:39:56.704Z,62.98
2023-01-11T17:43:24.962Z,62.91
2023-01-11T17:46:33.506Z,62.40
2023-01-11T17:49:42.243Z,62.92
2023-01-11T17:52:54.678Z,62.37
2023-01-11T17:56:03.894Z,61.75
2023-01-11T17:59:23.932Z,62.08
2023-01-11T18:02:33.320Z,62.73
2023-01-11T18:05:39.159Z,62.87
2023-01-11T18:08:52.217Z,61.67
2023-01-11T18:12:12.805Z,62.00
2023-01-11T18:15:33.356Z,61.62
2023-01-11T18:18:48.843Z,61.80
2023-01-11T18:21:57.899Z,60.87
2023-01-11T18:25:17.819Z,61.03
2023-01-11T18:28:38.648Z,60.51
2023-01-11T18:31:44.950Z,60.75
2023-01-11T18:34:57.512Z,60.43
2023-01-11T18:38:02.956Z,60.20
2023-01-11T18:41:30.252Z,60.66
2023-01-11T18:44:35.700Z,61.58
2023-01-11T18:47:42.980Z,60.15
2023-01-11T18:50:54.708Z,60.77
2023-01-11T18:54:00.919Z,59.82
2023-01-11T18:57:06.816Z,60.75
2023-01-11T19:00:18.858Z,60.01
2023-01-11T19:03:24.295Z,60.13
2023-01-11T19:06:33.419Z,60.37
2023-01-11T19:09:38.822Z,59.94
2023-01-11T19:12:45.414Z,59.63
2023-01-11T19:15:51.673Z,60.04
2023-01-11T19:18:58.204Z,59.66
2023-01-11T19:22:07.080Z,59.70
2023-01-11T19:25:15.414Z,59.43
2023-01-11T19:28:20.897Z,58.92
2023-01-11T19:31:27.139Z,58.82
2023-01-11T19:34:32.544Z,59.12
2023-01-11T19:37:41.850Z,58.21
2023-01-11T19:40:50.335Z,58.31
2023-01-11T19:43:57.017Z,58.09
2023-01-11T19:47:12.522Z,57.67
2023-01-11T19:50:20.202Z,56.24
2023-01-11T19:53:28.402Z,56.71
2023-01-11T19:56:34.815Z,56.67
2023-01-11T19:59:40.218Z,56.41
2023-01-11T20:02:46.876Z,56.23
2023-01-11T20:05:52.430Z,55.85
2023-01-11T20:09:01.988Z,55.39
2023-01-11T20:12:07.804Z,55.06
2023-01-11T20:15:15.208Z,54.29
2023-01-11T20:18:21.099Z,53.78
2023-01-11T20:21:34.291Z,53.33
2023-01-11T20:24:42.918Z,53.09
2023-01-11T20:27:49.436Z,53.64
2023-01-11T20:30:56.374Z,52.72
2023-01-11T20:34:05.310Z,53.58
2023-01-11T20:37:11.050Z,52.95
2023-01-11T20:40:21.044Z,53.25
2023-01-11T20:43:27.496Z,53.04
2023-01-11T20:46:34.985Z,51.56
2023-01-11T20:49:41.408Z,51.94
2023-01-11T20:52:48.204Z,51.81
2023-01-11T20:55:57.124Z,52.87
2023-01-11T20:59:04.501Z,53.66
2023-01-11T21:02:11.001Z,53.57
2023-01-11T21:05:17.835Z,52.90
2023-01-11T21:08:23.769Z,53.10
2023-01-11T21:11:34.613Z,52.77
2023-01-11T21:14:40.334Z,52.33
2023-01-11T21:17:47.160Z,52.49
2023-01-11T21:20:53.763Z,52.52
2023-01-11T21:24:02.581Z,52.52
2023-01-11T21:27:11.563Z,53.43
2023-01-11T21:30:18.751Z,54.00
2023-01-11T21:33:24.275Z,54.41
2023-01-11T21:36:34.495Z,55.12
2023-01-11T21:39:39.883Z,56.29
2023-01-11T21:42:49.010Z,57.60
2023-01-11T21:45:58.546Z,59.39
2023-01-11T21:49:04.888Z,59.90
2023-01-11T21:52:11.923Z,60.06
2023-01-11T21:55:18.298Z,59.70
2023-01-11T21:58:26.425Z,58.27
2023-01-11T22:01:32.929Z,58.81
2023-01-11T22:04:39.202Z,58.95
2023-01-11T22:07:45.455Z,57.33
2023-01-11T22:11:00.322Z,57.26
2023-01-11T22:14:09.737Z,57.67
2023-01-11T22:17:15.409Z,57.84
2023-01-11T22:20:21.837Z,58.21
2023-01-11T22:23:27.836Z,59.28
2023-01-11T22:26:38.872Z,58.74
2023-01-11T22:29:48.222Z,59.70
2023-01-11T22:32:54.663Z,60.68
2023-01-11T22:36:00.159Z,61.66
2023-01-11T22:39:06.995Z,62.30
2023-01-11T22:42:12.879Z,62.65
2023-01-11T22:45:22.060Z,63.67
2023-01-11T22:48:27.867Z,64.22
2023-01-11T22:51:34.141Z,65.75
2023-01-11T22:54:39.529Z,65.49
2023-01-11T22:57:45.856Z,65.53
2023-01-11T23:00:53.987Z,66.81
2023-01-11T23:04:02.354Z,67.21
2023-01-11T23:07:07.999Z,68.44
2023-01-11T23:10:15.131Z,67.79
2023-01-11T23:13:36.558Z,68.33
2023-01-11T23:16:47.834Z,69.86
2023-01-11T23:19:53.256Z,69.61
2023-01-11T23:22:59.536Z,69.83
2023-01-11T23:26:04.901Z,71.17
2023-01-11T23:29:11.607Z,71.30
2023-01-11T23:32:20.065Z,70.04
2023-01-11T23:35:26.461Z,71.46
2023-01-11T23:38:35.698Z,70.73
2023-01-11T23:41:58.065Z,71.44
2023-01-11T23:45:03.406Z,72.00
2023-01-11T23:48:09.701Z,72.27
2023-01-11T23:51:15.054Z,72.70
2023-01-11T23:54:21.375Z,72.73
2023-01-11T23:57:29.334Z,72.71
